sensor_id;sensor_type;location;lat;lon;timestamp;pressure;altitude;pressure_sealevel;temperature
63689;BMP280;54895;40.928;14.480;2023-06-22T00:02:14;101659.13;;;33.01
63689;BMP280;54895;40.928;14.480;2023-06-22T00:04:41;101664.47;;;32.95
63689;BMP280;54895;40.928;14.480;2023-06-22T00:07:07;101673.41;;;32.93
63689;BMP280;54895;40.928;14.480;2023-06-22T00:09:34;101679.72;;;32.98
63689;BMP280;54895;40.928;14.480;2023-06-22T00:12:01;101669.06;;;33.16
63689;BMP280;54895;40.928;14.480;2023-06-22T00:14:27;101669.13;;;33.18
63689;BMP280;54895;40.928;14.480;2023-06-22T00:16:53;101667.91;;;32.93
63689;BMP280;54895;40.928;14.480;2023-06-22T00:19:21;101669.16;;;33.53
63689;BMP280;54895;40.928;14.480;2023-06-22T00:21:48;101675.22;;;33.45
63689;BMP280;54895;40.928;14.480;2023-06-22T00:24:19;101667.19;;;33.59
63689;BMP280;54895;40.928;14.480;2023-06-22T00:26:47;101682.38;;;33.58
63689;BMP280;54895;40.928;14.480;2023-06-22T00:29:13;101673.25;;;33.17
63689;BMP280;54895;40.928;14.480;2023-06-22T00:31:40;101675.34;;;32.89
63689;BMP280;54895;40.928;14.480;2023-06-22T00:34:06;101672.97;;;32.46
63689;BMP280;54895;40.928;14.480;2023-06-22T00:40:41;101659.03;;;32.67
63689;BMP280;54895;40.928;14.480;2023-06-22T00:43:08;101670.66;;;34.36
63689;BMP280;54895;40.928;14.480;2023-06-22T00:45:35;101661.56;;;32.87
63689;BMP280;54895;40.928;14.480;2023-06-22T00:48:02;101655.84;;;32.49
63689;BMP280;54895;40.928;14.480;2023-06-22T00:50:31;101659.88;;;32.76
63689;BMP280;54895;40.928;14.480;2023-06-22T00:53:06;101658.97;;;32.95
63689;BMP280;54895;40.928;14.480;2023-06-22T00:55:37;101659.88;;;32.76
63689;BMP280;54895;40.928;14.480;2023-06-22T00:58:08;101657.56;;;33.25
63689;BMP280;54895;40.928;14.480;2023-06-22T01:00:38;101661.56;;;32.89
63689;BMP280;54895;40.928;14.480;2023-06-22T01:03:04;101667.19;;;32.93
63689;BMP280;54895;40.928;14.480;2023-06-22T01:05:35;101661.50;;;32.85
63689;BMP280;54895;40.928;14.480;2023-06-22T01:10:42;101654.31;;;32.72
63689;BMP280;54895;40.928;14.480;2023-06-22T01:18:23;101646.31;;;32.84
63689;BMP280;54895;40.928;14.480;2023-06-22T01:20:56;101655.28;;;33.16
63689;BMP280;54895;40.928;14.480;2023-06-22T01:23:42;101653.38;;;32.91
63689;BMP280;54895;40.928;14.480;2023-06-22T01:26:25;101650.19;;;33.35
63689;BMP280;54895;40.928;14.480;2023-06-22T01:28:55;101659.22;;;34.12
63689;BMP280;54895;40.928;14.480;2023-06-22T01:31:27;101656.47;;;33.73
63689;BMP280;54895;40.928;14.480;2023-06-22T01:33:59;101653.81;;;33.81
63689;BMP280;54895;40.928;14.480;2023-06-22T01:40:21;101644.69;;;33.04
63689;BMP280;54895;40.928;14.480;2023-06-22T01:42:48;101648.56;;;33.24
63689;BMP280;54895;40.928;14.480;2023-06-22T01:45:16;101647.69;;;33.49
63689;BMP280;54895;40.928;14.480;2023-06-22T01:47:43;101643.41;;;33.42
63689;BMP280;54895;40.928;14.480;2023-06-22T01:50:12;101637.41;;;32.87
63689;BMP280;54895;40.928;14.480;2023-06-22T01:52:38;101634.38;;;32.46
63689;BMP280;54895;40.928;14.480;2023-06-22T01:55:04;101632.41;;;32.78
63689;BMP280;54895;40.928;14.480;2023-06-22T01:57:32;101628.75;;;32.69
63689;BMP280;54895;40.928;14.480;2023-06-22T02:00:00;101632.78;;;32.96
63689;BMP280;54895;40.928;14.480;2023-06-22T02:02:32;101636.91;;;32.95
63689;BMP280;54895;40.928;14.480;2023-06-22T02:05:06;101632.69;;;33.23
63689;BMP280;54895;40.928;14.480;2023-06-22T02:07:41;101641.47;;;32.82
63689;BMP280;54895;40.928;14.480;2023-06-22T02:10:09;101637.94;;;33.46
63689;BMP280;54895;40.928;14.480;2023-06-22T02:12:38;101633.81;;;33.43
63689;BMP280;54895;40.928;14.480;2023-06-22T02:15:06;101634.41;;;33.07
63689;BMP280;54895;40.928;14.480;2023-06-22T02:17:33;101635.00;;;33.36
63689;BMP280;54895;40.928;14.480;2023-06-22T02:20:02;101627.03;;;33.50
63689;BMP280;54895;40.928;14.480;2023-06-22T02:22:30;101629.81;;;33.52
63689;BMP280;54895;40.928;14.480;2023-06-22T02:24:56;101625.41;;;33.39
63689;BMP280;54895;40.928;14.480;2023-06-22T02:27:23;101626.44;;;33.21
63689;BMP280;54895;40.928;14.480;2023-06-22T02:29:49;101630.94;;;32.75
63689;BMP280;54895;40.928;14.480;2023-06-22T02:32:15;101623.69;;;32.89
63689;BMP280;54895;40.928;14.480;2023-06-22T02:34:46;101620.16;;;32.55
63689;BMP280;54895;40.928;14.480;2023-06-22T02:40:56;101624.13;;;33.44
63689;BMP280;54895;40.928;14.480;2023-06-22T02:43:24;101634.94;;;33.32
63689;BMP280;54895;40.928;14.480;2023-06-22T02:45:51;101622.06;;;32.78
63689;BMP280;54895;40.928;14.480;2023-06-22T02:48:18;101630.91;;;32.73
63689;BMP280;54895;40.928;14.480;2023-06-22T02:50:44;101632.06;;;32.64
63689;BMP280;54895;40.928;14.480;2023-06-22T02:53:11;101629.00;;;33.13
63689;BMP280;54895;40.928;14.480;2023-06-22T02:55:41;101624.41;;;32.92
63689;BMP280;54895;40.928;14.480;2023-06-22T02:58:07;101632.47;;;32.82
63689;BMP280;54895;40.928;14.480;2023-06-22T03:00:36;101624.59;;;33.33
63689;BMP280;54895;40.928;14.480;2023-06-22T03:03:05;101622.63;;;33.37
63689;BMP280;54895;40.928;14.480;2023-06-22T03:05:31;101629.31;;;32.35
63689;BMP280;54895;40.928;14.480;2023-06-22T03:07:59;101633.63;;;33.35
63689;BMP280;54895;40.928;14.480;2023-06-22T03:10:29;101635.19;;;33.82
63689;BMP280;54895;40.928;14.480;2023-06-22T03:12:56;101634.28;;;34.10
63689;BMP280;54895;40.928;14.480;2023-06-22T03:15:22;101626.97;;;32.82
63689;BMP280;54895;40.928;14.480;2023-06-22T03:17:50;101629.44;;;34.07
63689;BMP280;54895;40.928;14.480;2023-06-22T03:20:16;101638.63;;;33.12
63689;BMP280;54895;40.928;14.480;2023-06-22T03:22:43;101625.22;;;33.29
63689;BMP280;54895;40.928;14.480;2023-06-22T03:25:09;101621.13;;;33.66
63689;BMP280;54895;40.928;14.480;2023-06-22T03:27:42;101622.88;;;33.51
63689;BMP280;54895;40.928;14.480;2023-06-22T03:30:11;101629.09;;;34.30
63689;BMP280;54895;40.928;14.480;2023-06-22T03:32:37;101627.47;;;33.39
63689;BMP280;54895;40.928;14.480;2023-06-22T03:35:06;101628.91;;;33.79
63689;BMP280;54895;40.928;14.480;2023-06-22T03:40:56;101635.19;;;33.82
63689;BMP280;54895;40.928;14.480;2023-06-22T03:43:24;101630.56;;;34.37
63689;BMP280;54895;40.928;14.480;2023-06-22T03:45:50;101639.47;;;34.30
63689;BMP280;54895;40.928;14.480;2023-06-22T03:48:16;101629.81;;;34.31
63689;BMP280;54895;40.928;14.480;2023-06-22T03:50:42;101636.53;;;34.20
63689;BMP280;54895;40.928;14.480;2023-06-22T03:53:10;101641.84;;;34.08
63689;BMP280;54895;40.928;14.480;2023-06-22T03:55:36;101633.22;;;34.75
63689;BMP280;54895;40.928;14.480;2023-06-22T03:58:03;101641.59;;;34.81
63689;BMP280;54895;40.928;14.480;2023-06-22T04:00:32;101647.38;;;35.02
63689;BMP280;54895;40.928;14.480;2023-06-22T04:02:58;101648.50;;;34.80
63689;BMP280;54895;40.928;14.480;2023-06-22T04:05:24;101646.50;;;34.39
63689;BMP280;54895;40.928;14.480;2023-06-22T04:07:50;101647.66;;;34.71
63689;BMP280;54895;40.928;14.480;2023-06-22T04:10:17;101638.25;;;34.90
63689;BMP280;54895;40.928;14.480;2023-06-22T04:12:43;101638.94;;;34.39
63689;BMP280;54895;40.928;14.480;2023-06-22T04:15:09;101639.00;;;34.02
63689;BMP280;54895;40.928;14.480;2023-06-22T04:17:36;101642.84;;;35.27
63689;BMP280;54895;40.928;14.480;2023-06-22T04:20:02;101641.94;;;35.06
63689;BMP280;54895;40.928;14.480;2023-06-22T04:22:29;101640.81;;;34.27
63689;BMP280;54895;40.928;14.480;2023-06-22T04:24:56;101645.28;;;36.47
63689;BMP280;54895;40.928;14.480;2023-06-22T04:27:25;101644.59;;;36.46
63689;BMP280;54895;40.928;14.480;2023-06-22T04:29:51;101641.97;;;36.70
63689;BMP280;54895;40.928;14.480;2023-06-22T04:32:18;101641.03;;;34.00
63689;BMP280;54895;40.928;14.480;2023-06-22T04:34:45;101637.94;;;34.21
63689;BMP280;54895;40.928;14.480;2023-06-22T04:41:12;101624.91;;;34.75
63689;BMP280;54895;40.928;14.480;2023-06-22T04:43:40;101636.94;;;36.39
63689;BMP280;54895;40.928;14.480;2023-06-22T04:46:06;101636.16;;;36.29
63689;BMP280;54895;40.928;14.480;2023-06-22T04:48:32;101641.09;;;35.57
63689;BMP280;54895;40.928;14.480;2023-06-22T04:51:00;101634.03;;;36.21
63689;BMP280;54895;40.928;14.480;2023-06-22T04:53:32;101638.56;;;34.63
63689;BMP280;54895;40.928;14.480;2023-06-22T04:55:59;101637.59;;;34.91
63689;BMP280;54895;40.928;14.480;2023-06-22T04:58:25;101638.59;;;35.16
63689;BMP280;54895;40.928;14.480;2023-06-22T05:00:54;101638.66;;;35.22
63689;BMP280;54895;40.928;14.480;2023-06-22T05:03:24;101639.38;;;35.24
63689;BMP280;54895;40.928;14.480;2023-06-22T05:05:52;101637.06;;;35.66
63689;BMP280;54895;40.928;14.480;2023-06-22T05:08:19;101624.81;;;34.67
63689;BMP280;54895;40.928;14.480;2023-06-22T05:10:45;101631.91;;;35.35
63689;BMP280;54895;40.928;14.480;2023-06-22T05:13:12;101633.97;;;35.38
63689;BMP280;54895;40.928;14.480;2023-06-22T05:15:38;101635.66;;;35.65
63689;BMP280;54895;40.928;14.480;2023-06-22T05:18:06;101631.66;;;34.16
63689;BMP280;54895;40.928;14.480;2023-06-22T05:20:32;101633.56;;;36.58
63689;BMP280;54895;40.928;14.480;2023-06-22T05:23:02;101642.19;;;37.44
63689;BMP280;54895;40.928;14.480;2023-06-22T05:25:28;101639.38;;;37.20
63689;BMP280;54895;40.928;14.480;2023-06-22T05:27:55;101639.31;;;37.10
63689;BMP280;54895;40.928;14.480;2023-06-22T05:30:22;101644.94;;;37.34
63689;BMP280;54895;40.928;14.480;2023-06-22T05:32:48;101644.19;;;37.14
63689;BMP280;54895;40.928;14.480;2023-06-22T05:35:14;101647.75;;;37.66
63689;BMP280;54895;40.928;14.480;2023-06-22T05:41:09;101652.38;;;38.78
63689;BMP280;54895;40.928;14.480;2023-06-22T05:43:35;101647.72;;;38.23
63689;BMP280;54895;40.928;14.480;2023-06-22T05:46:03;101647.63;;;38.51
63689;BMP280;54895;40.928;14.480;2023-06-22T05:48:30;101651.84;;;38.38
63689;BMP280;54895;40.928;14.480;2023-06-22T05:50:56;101649.72;;;38.51
63689;BMP280;54895;40.928;14.480;2023-06-22T05:53:23;101651.19;;;38.16
63689;BMP280;54895;40.928;14.480;2023-06-22T05:55:50;101660.25;;;37.77
63689;BMP280;54895;40.928;14.480;2023-06-22T05:58:17;101654.66;;;38.28
63689;BMP280;54895;40.928;14.480;2023-06-22T06:00:43;101661.31;;;39.01
63689;BMP280;54895;40.928;14.480;2023-06-22T06:03:10;101664.78;;;39.07
63689;BMP280;54895;40.928;14.480;2023-06-22T06:05:37;101673.63;;;39.33
63689;BMP280;54895;40.928;14.480;2023-06-22T06:08:05;101666.91;;;38.95
63689;BMP280;54895;40.928;14.480;2023-06-22T06:10:33;101664.34;;;38.47
63689;BMP280;54895;40.928;14.480;2023-06-22T06:13:00;101668.56;;;38.28
63689;BMP280;54895;40.928;14.480;2023-06-22T06:15:29;101667.09;;;38.53
63689;BMP280;54895;40.928;14.480;2023-06-22T06:17:56;101674.16;;;37.81
63689;BMP280;54895;40.928;14.480;2023-06-22T06:20:24;101669.75;;;38.85
63689;BMP280;54895;40.928;14.480;2023-06-22T06:22:51;101671.19;;;38.72
63689;BMP280;54895;40.928;14.480;2023-06-22T06:25:17;101681.66;;;38.65
63689;BMP280;54895;40.928;14.480;2023-06-22T06:27:46;101691.91;;;39.09
63689;BMP280;54895;40.928;14.480;2023-06-22T06:30:14;101690.09;;;39.67
63689;BMP280;54895;40.928;14.480;2023-06-22T06:32:43;101688.16;;;39.54
63689;BMP280;54895;40.928;14.480;2023-06-22T06:35:14;101681.03;;;39.69
63689;BMP280;54895;40.928;14.480;2023-06-22T06:41:08;101697.63;;;39.83
63689;BMP280;54895;40.928;14.480;2023-06-22T06:43:35;101689.03;;;40.08
63689;BMP280;54895;40.928;14.480;2023-06-22T06:46:01;101692.84;;;39.71
63689;BMP280;54895;40.928;14.480;2023-06-22T06:48:29;101693.06;;;39.47
63689;BMP280;54895;40.928;14.480;2023-06-22T06:50:55;101707.41;;;39.82
63689;BMP280;54895;40.928;14.480;2023-06-22T06:53:22;101688.59;;;39.80
63689;BMP280;54895;40.928;14.480;2023-06-22T06:55:48;101689.38;;;39.73
63689;BMP280;54895;40.928;14.480;2023-06-22T06:58:15;101694.81;;;39.89
63689;BMP280;54895;40.928;14.480;2023-06-22T07:00:42;101689.78;;;40.03
63689;BMP280;54895;40.928;14.480;2023-06-22T07:03:09;101701.53;;;40.73
63689;BMP280;54895;40.928;14.480;2023-06-22T07:05:36;101691.06;;;40.74
63689;BMP280;54895;40.928;14.480;2023-06-22T07:08:02;101694.75;;;40.59
63689;BMP280;54895;40.928;14.480;2023-06-22T07:10:29;101688.13;;;41.32
63689;BMP280;54895;40.928;14.480;2023-06-22T07:12:56;101693.38;;;41.52
63689;BMP280;54895;40.928;14.480;2023-06-22T07:15:23;101700.81;;;41.25
63689;BMP280;54895;40.928;14.480;2023-06-22T07:17:50;101696.66;;;40.14
63689;BMP280;54895;40.928;14.480;2023-06-22T07:20:16;101695.81;;;40.25
63689;BMP280;54895;40.928;14.480;2023-06-22T07:22:44;101701.28;;;40.37
63689;BMP280;54895;40.928;14.480;2023-06-22T07:25:13;101696.25;;;40.50
63689;BMP280;54895;40.928;14.480;2023-06-22T07:28:06;101698.03;;;41.23
63689;BMP280;54895;40.928;14.480;2023-06-22T07:30:33;101698.19;;;41.57
63689;BMP280;54895;40.928;14.480;2023-06-22T07:33:00;101706.22;;;41.35
63689;BMP280;54895;40.928;14.480;2023-06-22T07:35:30;101694.72;;;41.57
63689;BMP280;54895;40.928;14.480;2023-06-22T07:41:23;101687.81;;;41.50
63689;BMP280;54895;40.928;14.480;2023-06-22T07:43:50;101700.44;;;41.49
63689;BMP280;54895;40.928;14.480;2023-06-22T07:46:17;101695.78;;;41.74
63689;BMP280;54895;40.928;14.480;2023-06-22T07:48:44;101696.28;;;42.22
63689;BMP280;54895;40.928;14.480;2023-06-22T07:51:11;101695.13;;;42.46
63689;BMP280;54895;40.928;14.480;2023-06-22T07:53:43;101695.38;;;41.97
63689;BMP280;54895;40.928;14.480;2023-06-22T07:56:10;101699.00;;;41.90
63689;BMP280;54895;40.928;14.480;2023-06-22T07:58:37;101703.09;;;41.95
63689;BMP280;54895;40.928;14.480;2023-06-22T08:01:05;101699.28;;;40.86
63689;BMP280;54895;40.928;14.480;2023-06-22T08:03:32;101705.63;;;41.73
63689;BMP280;54895;40.928;14.480;2023-06-22T08:05:59;101715.84;;;41.46
63689;BMP280;54895;40.928;14.480;2023-06-22T08:08:26;101714.00;;;41.31
63689;BMP280;54895;40.928;14.480;2023-06-22T08:10:53;101705.78;;;41.65
63689;BMP280;54895;40.928;14.480;2023-06-22T08:13:20;101711.84;;;41.33
63689;BMP280;54895;40.928;14.480;2023-06-22T08:15:47;101702.34;;;42.97
63689;BMP280;54895;40.928;14.480;2023-06-22T08:18:14;101709.56;;;43.45
63689;BMP280;54895;40.928;14.480;2023-06-22T08:20:41;101710.13;;;43.51
63689;BMP280;54895;40.928;14.480;2023-06-22T08:23:08;101698.50;;;43.67
63689;BMP280;54895;40.928;14.480;2023-06-22T08:25:35;101698.91;;;43.51
63689;BMP280;54895;40.928;14.480;2023-06-22T08:28:03;101698.84;;;42.97
63689;BMP280;54895;40.928;14.480;2023-06-22T08:30:30;101699.66;;;41.52
63689;BMP280;54895;40.928;14.480;2023-06-22T08:32:57;101696.19;;;41.06
63689;BMP280;54895;40.928;14.480;2023-06-22T08:35:24;101697.47;;;41.59
63689;BMP280;54895;40.928;14.480;2023-06-22T08:41:41;101694.41;;;43.62
63689;BMP280;54895;40.928;14.480;2023-06-22T08:44:07;101691.38;;;44.21
63689;BMP280;54895;40.928;14.480;2023-06-22T08:46:34;101696.75;;;44.29
63689;BMP280;54895;40.928;14.480;2023-06-22T08:49:00;101684.59;;;44.36
63689;BMP280;54895;40.928;14.480;2023-06-22T08:51:27;101689.19;;;43.75
63689;BMP280;54895;40.928;14.480;2023-06-22T08:53:54;101686.19;;;43.80
63689;BMP280;54895;40.928;14.480;2023-06-22T08:56:21;101689.38;;;42.84
63689;BMP280;54895;40.928;14.480;2023-06-22T08:58:47;101698.97;;;42.28
63689;BMP280;54895;40.928;14.480;2023-06-22T09:01:14;101690.78;;;42.53
63689;BMP280;54895;40.928;14.480;2023-06-22T09:03:42;101690.50;;;42.95
63689;BMP280;54895;40.928;14.480;2023-06-22T09:06:09;101692.25;;;43.08
63689;BMP280;54895;40.928;14.480;2023-06-22T09:08:36;101686.59;;;43.12
63689;BMP280;54895;40.928;14.480;2023-06-22T09:11:03;101689.31;;;43.14
63689;BMP280;54895;40.928;14.480;2023-06-22T09:13:30;101690.50;;;41.58
63689;BMP280;54895;40.928;14.480;2023-06-22T09:15:58;101687.25;;;41.43
63689;BMP280;54895;40.928;14.480;2023-06-22T09:18:24;101688.53;;;41.06
63689;BMP280;54895;40.928;14.480;2023-06-22T09:20:51;101699.75;;;41.89
63689;BMP280;54895;40.928;14.480;2023-06-22T09:23:17;101694.34;;;42.49
63689;BMP280;54895;40.928;14.480;2023-06-22T09:25:44;101691.38;;;43.18
63689;BMP280;54895;40.928;14.480;2023-06-22T09:28:10;101694.38;;;42.13
63689;BMP280;54895;40.928;14.480;2023-06-22T09:30:37;101699.22;;;42.16
63689;BMP280;54895;40.928;14.480;2023-06-22T09:33:03;101693.78;;;42.75
63689;BMP280;54895;40.928;14.480;2023-06-22T09:35:30;101690.66;;;42.87
63689;BMP280;54895;40.928;14.480;2023-06-22T09:41:18;101687.38;;;42.46
63689;BMP280;54895;40.928;14.480;2023-06-22T09:43:45;101682.59;;;43.31
63689;BMP280;54895;40.928;14.480;2023-06-22T09:46:12;101686.50;;;43.95
63689;BMP280;54895;40.928;14.480;2023-06-22T09:48:39;101686.28;;;44.94
63689;BMP280;54895;40.928;14.480;2023-06-22T09:51:06;101688.34;;;44.51
63689;BMP280;54895;40.928;14.480;2023-06-22T09:53:33;101686.19;;;44.53
63689;BMP280;54895;40.928;14.480;2023-06-22T09:56:01;101683.59;;;43.46
63689;BMP280;54895;40.928;14.480;2023-06-22T09:58:28;101676.47;;;43.25
63689;BMP280;54895;40.928;14.480;2023-06-22T10:00:55;101685.94;;;43.10
63689;BMP280;54895;40.928;14.480;2023-06-22T10:03:22;101689.44;;;43.91
63689;BMP280;54895;40.928;14.480;2023-06-22T10:05:49;101686.19;;;44.53
63689;BMP280;54895;40.928;14.480;2023-06-22T10:08:16;101680.44;;;44.11
63689;BMP280;54895;40.928;14.480;2023-06-22T10:10:43;101688.06;;;44.83
63689;BMP280;54895;40.928;14.480;2023-06-22T10:13:11;101683.59;;;43.99
63689;BMP280;54895;40.928;14.480;2023-06-22T10:15:38;101674.19;;;44.77
63689;BMP280;54895;40.928;14.480;2023-06-22T10:18:05;101685.75;;;44.21
63689;BMP280;54895;40.928;14.480;2023-06-22T10:20:32;101678.91;;;45.25
63689;BMP280;54895;40.928;14.480;2023-06-22T10:23:00;101671.53;;;45.54
63689;BMP280;54895;40.928;14.480;2023-06-22T10:25:26;101676.25;;;44.99
63689;BMP280;54895;40.928;14.480;2023-06-22T10:27:54;101669.34;;;44.53
63689;BMP280;54895;40.928;14.480;2023-06-22T10:30:21;101675.72;;;45.15
63689;BMP280;54895;40.928;14.480;2023-06-22T10:32:49;101674.88;;;44.09
63689;BMP280;54895;40.928;14.480;2023-06-22T10:35:16;101673.34;;;43.63
63689;BMP280;54895;40.928;14.480;2023-06-22T10:41:53;101672.69;;;44.80
63689;BMP280;54895;40.928;14.480;2023-06-22T10:44:20;101670.50;;;43.65
63689;BMP280;54895;40.928;14.480;2023-06-22T10:46:46;101664.47;;;45.15
63689;BMP280;54895;40.928;14.480;2023-06-22T10:49:13;101665.94;;;44.27
63689;BMP280;54895;40.928;14.480;2023-06-22T10:51:40;101672.81;;;44.76
63689;BMP280;54895;40.928;14.480;2023-06-22T10:54:07;101666.78;;;45.69
63689;BMP280;54895;40.928;14.480;2023-06-22T10:56:34;101654.50;;;46.32
63689;BMP280;54895;40.928;14.480;2023-06-22T10:59:01;101652.19;;;45.45
63689;BMP280;54895;40.928;14.480;2023-06-22T11:01:28;101660.28;;;45.54
63689;BMP280;54895;40.928;14.480;2023-06-22T11:03:54;101664.72;;;45.68
63689;BMP280;54895;40.928;14.480;2023-06-22T11:06:21;101661.00;;;45.53
63689;BMP280;54895;40.928;14.480;2023-06-22T11:08:47;101668.63;;;45.18
63689;BMP280;54895;40.928;14.480;2023-06-22T11:11:14;101671.16;;;44.63
63689;BMP280;54895;40.928;14.480;2023-06-22T11:13:43;101665.81;;;44.31
63689;BMP280;54895;40.928;14.480;2023-06-22T11:16:10;101662.50;;;44.69
63689;BMP280;54895;40.928;14.480;2023-06-22T11:18:37;101664.13;;;44.84
63689;BMP280;54895;40.928;14.480;2023-06-22T11:21:03;101666.38;;;44.35
63689;BMP280;54895;40.928;14.480;2023-06-22T11:23:29;101661.88;;;45.09
63689;BMP280;54895;40.928;14.480;2023-06-22T11:25:56;101661.44;;;45.00
63689;BMP280;54895;40.928;14.480;2023-06-22T11:28:22;101665.38;;;44.22
63689;BMP280;54895;40.928;14.480;2023-06-22T11:30:49;101667.78;;;44.12
63689;BMP280;54895;40.928;14.480;2023-06-22T11:33:15;101663.13;;;45.14
63689;BMP280;54895;40.928;14.480;2023-06-22T11:35:42;101658.03;;;45.39
63689;BMP280;54895;40.928;14.480;2023-06-22T11:41:49;101667.25;;;45.94
63689;BMP280;54895;40.928;14.480;2023-06-22T11:44:17;101653.53;;;45.84
63689;BMP280;54895;40.928;14.480;2023-06-22T11:46:44;101644.06;;;46.47
63689;BMP280;54895;40.928;14.480;2023-06-22T11:49:12;101642.22;;;46.23
63689;BMP280;54895;40.928;14.480;2023-06-22T11:51:39;101651.41;;;45.66
63689;BMP280;54895;40.928;14.480;2023-06-22T11:54:06;101645.31;;;46.15
63689;BMP280;54895;40.928;14.480;2023-06-22T11:56:33;101649.69;;;46.63
63689;BMP280;54895;40.928;14.480;2023-06-22T11:59:01;101644.44;;;46.71
63689;BMP280;54895;40.928;14.480;2023-06-22T12:01:28;101632.28;;;46.91
63689;BMP280;54895;40.928;14.480;2023-06-22T12:03:56;101642.31;;;47.52
63689;BMP280;54895;40.928;14.480;2023-06-22T12:06:23;101638.19;;;46.53
63689;BMP280;54895;40.928;14.480;2023-06-22T12:08:50;101642.69;;;46.46
63689;BMP280;54895;40.928;14.480;2023-06-22T12:11:18;101637.88;;;46.26
63689;BMP280;54895;40.928;14.480;2023-06-22T12:13:45;101641.16;;;45.39
63689;BMP280;54895;40.928;14.480;2023-06-22T12:16:12;101641.81;;;45.59
63689;BMP280;54895;40.928;14.480;2023-06-22T12:18:40;101633.22;;;46.18
63689;BMP280;54895;40.928;14.480;2023-06-22T12:21:07;101650.13;;;45.63
63689;BMP280;54895;40.928;14.480;2023-06-22T12:23:35;101640.31;;;45.62
63689;BMP280;54895;40.928;14.480;2023-06-22T12:26:02;101650.56;;;46.07
63689;BMP280;54895;40.928;14.480;2023-06-22T12:28:29;101638.00;;;45.49
63689;BMP280;54895;40.928;14.480;2023-06-22T12:30:56;101638.00;;;45.49
63689;BMP280;54895;40.928;14.480;2023-06-22T12:33:23;101640.59;;;45.54
63689;BMP280;54895;40.928;14.480;2023-06-22T12:35:50;101647.34;;;45.43
63689;BMP280;54895;40.928;14.480;2023-06-22T12:42:08;101643.97;;;46.49
63689;BMP280;54895;40.928;14.480;2023-06-22T12:44:38;101648.06;;;45.80
63689;BMP280;54895;40.928;14.480;2023-06-22T12:47:08;101638.66;;;45.31
63689;BMP280;54895;40.928;14.480;2023-06-22T12:49:35;101637.81;;;44.29
63689;BMP280;54895;40.928;14.480;2023-06-22T12:52:02;101634.13;;;44.56
63689;BMP280;54895;40.928;14.480;2023-06-22T12:54:29;101634.16;;;44.77
63689;BMP280;54895;40.928;14.480;2023-06-22T12:56:56;101638.47;;;44.96
63689;BMP280;54895;40.928;14.480;2023-06-22T12:59:22;101635.06;;;45.32
63689;BMP280;54895;40.928;14.480;2023-06-22T13:01:49;101632.34;;;45.10
63689;BMP280;54895;40.928;14.480;2023-06-22T13:04:15;101632.59;;;44.59
63689;BMP280;54895;40.928;14.480;2023-06-22T13:06:42;101633.63;;;45.13
63689;BMP280;54895;40.928;14.480;2023-06-22T13:09:10;101631.56;;;44.91
63689;BMP280;54895;40.928;14.480;2023-06-22T13:11:36;101638.50;;;44.94
63689;BMP280;54895;40.928;14.480;2023-06-22T13:14:03;101644.47;;;45.25
63689;BMP280;54895;40.928;14.480;2023-06-22T13:16:29;101643.44;;;45.73
63689;BMP280;54895;40.928;14.480;2023-06-22T13:18:56;101636.53;;;45.11
63689;BMP280;54895;40.928;14.480;2023-06-22T13:21:22;101635.50;;;45.00
63689;BMP280;54895;40.928;14.480;2023-06-22T13:23:49;101638.28;;;45.41
63689;BMP280;54895;40.928;14.480;2023-06-22T13:26:15;101640.53;;;45.56
63689;BMP280;54895;40.928;14.480;2023-06-22T13:28:41;101643.09;;;45.03
63689;BMP280;54895;40.928;14.480;2023-06-22T13:31:08;101643.78;;;45.04
63689;BMP280;54895;40.928;14.480;2023-06-22T13:33:34;101648.75;;;45.24
63689;BMP280;54895;40.928;14.480;2023-06-22T13:36:01;101640.09;;;44.67
63689;BMP280;54895;40.928;14.480;2023-06-22T13:42:04;101640.81;;;44.45
63689;BMP280;54895;40.928;14.480;2023-06-22T13:44:31;101642.47;;;44.58
63689;BMP280;54895;40.928;14.480;2023-06-22T13:46:57;101647.13;;;43.99
63689;BMP280;54895;40.928;14.480;2023-06-22T13:49:24;101653.19;;;44.30
63689;BMP280;54895;40.928;14.480;2023-06-22T13:51:53;101637.00;;;44.54
63689;BMP280;54895;40.928;14.480;2023-06-22T13:54:22;101637.63;;;45.20
63689;BMP280;54895;40.928;14.480;2023-06-22T13:56:50;101636.66;;;44.87
63689;BMP280;54895;40.928;14.480;2023-06-22T13:59:19;101636.69;;;44.42
63689;BMP280;54895;40.928;14.480;2023-06-22T14:01:51;101629.03;;;45.44
63689;BMP280;54895;40.928;14.480;2023-06-22T14:04:21;101635.78;;;45.33
63689;BMP280;54895;40.928;14.480;2023-06-22T14:06:48;101635.16;;;45.87
63689;BMP280;54895;40.928;14.480;2023-06-22T14:09:17;101634.09;;;44.99
63689;BMP280;54895;40.928;14.480;2023-06-22T14:11:43;101624.16;;;45.43
63689;BMP280;54895;40.928;14.480;2023-06-22T14:14:13;101621.94;;;44.86
63689;BMP280;54895;40.928;14.480;2023-06-22T14:16:42;101631.00;;;45.48
63689;BMP280;54895;40.928;14.480;2023-06-22T14:19:11;101625.41;;;45.84
63689;BMP280;54895;40.928;14.480;2023-06-22T14:21:40;101621.06;;;46.06
63689;BMP280;54895;40.928;14.480;2023-06-22T14:24:07;101624.03;;;45.65
63689;BMP280;54895;40.928;14.480;2023-06-22T14:26:34;101620.00;;;45.78
63689;BMP280;54895;40.928;14.480;2023-06-22T14:29:01;101627.78;;;45.19
63689;BMP280;54895;40.928;14.480;2023-06-22T14:31:28;101623.19;;;44.69
63689;BMP280;54895;40.928;14.480;2023-06-22T14:33:55;101618.25;;;44.69
63689;BMP280;54895;40.928;14.480;2023-06-22T14:36:22;101624.28;;;45.39
63689;BMP280;54895;40.928;14.480;2023-06-22T14:42:06;101620.97;;;46.26
63689;BMP280;54895;40.928;14.480;2023-06-22T14:44:33;101619.00;;;46.04
63689;BMP280;54895;40.928;14.480;2023-06-22T14:47:00;101614.63;;;46.25
63689;BMP280;54895;40.928;14.480;2023-06-22T14:49:27;101616.16;;;44.47